Terminal Aerodrome Forecast
Issued by NWS

Home | Current Version | Previous Version | Text Only | Print | Product List | Glossary On
Versions: 1 2 3 4 5 6 7 8 9 10 11 12 13 14 15
610
FTUS46 KMTR 262348
TAFOAK
TAF
KOAK 262348Z 2700/2806 30012KT P6SM FEW150 SCT200
     FM270300 29008KT 6SM HZ FEW150
     FM271000 VRB03KT 6SM HZ FU FEW010 SCT200
     FM272200 30012KT P6SM FEW150 SCT200
     FM280300 29009KT P6SM FEW150=

USA.gov is the U.S. government's official web portal to all federal, state and local government web resources and services.